sensor_id;sensor_type;location;lat;lon;timestamp;pressure;altitude;pressure_sealevel;temperature;humidity
82290;BME280;71891;21.336;-157.724;2023-09-12T00:00:11;101372.45;;;33.52;29.09
82290;BME280;71891;21.336;-157.724;2023-09-12T00:02:37;101367.33;;;33.48;28.89
82290;BME280;71891;21.336;-157.724;2023-09-12T00:05:02;101368.80;;;33.03;29.13
82290;BME280;71891;21.336;-157.724;2023-09-12T00:07:28;101374.26;;;32.66;30.17
82290;BME280;71891;21.336;-157.724;2023-09-12T00:09:53;101371.11;;;31.30;31.39
82290;BME280;71891;21.336;-157.724;2023-09-12T00:12:21;101370.75;;;32.30;30.75
82290;BME280;71891;21.336;-157.724;2023-09-12T00:14:43;101371.03;;;32.44;30.37
82290;BME280;71891;21.336;-157.724;2023-09-12T00:17:09;101361.20;;;31.95;32.15
82290;BME280;71891;21.336;-157.724;2023-09-12T00:19:35;101365.80;;;31.52;32.34
82290;BME280;71891;21.336;-157.724;2023-09-12T00:22:00;101358.51;;;31.19;32.87
82290;BME280;71891;21.336;-157.724;2023-09-12T00:24:25;101359.33;;;31.22;32.68
82290;BME280;71891;21.336;-157.724;2023-09-12T00:26:51;101352.95;;;31.09;33.34
82290;BME280;71891;21.336;-157.724;2023-09-12T00:29:16;101344.69;;;31.10;33.20
82290;BME280;71891;21.336;-157.724;2023-09-12T00:31:42;101340.58;;;30.26;34.74
82290;BME280;71891;21.336;-157.724;2023-09-12T00:34:07;101345.45;;;31.51;33.40
82290;BME280;71891;21.336;-157.724;2023-09-12T00:36:33;101349.19;;;31.13;33.51
82290;BME280;71891;21.336;-157.724;2023-09-12T00:38:58;101341.59;;;31.41;33.04
82290;BME280;71891;21.336;-157.724;2023-09-12T00:41:24;101338.56;;;31.06;33.78
82290;BME280;71891;21.336;-157.724;2023-09-12T00:43:50;101333.89;;;30.93;33.59
82290;BME280;71891;21.336;-157.724;2023-09-12T00:46:19;101330.09;;;30.69;33.84
82290;BME280;71891;21.336;-157.724;2023-09-12T00:48:41;101327.74;;;30.50;33.74
82290;BME280;71891;21.336;-157.724;2023-09-12T00:51:06;101324.99;;;31.12;33.16
82290;BME280;71891;21.336;-157.724;2023-09-12T00:53:32;101323.23;;;30.64;33.85
82290;BME280;71891;21.336;-157.724;2023-09-12T00:56:00;101325.85;;;30.69;33.99
82290;BME280;71891;21.336;-157.724;2023-09-12T00:58:24;101325.60;;;31.48;33.82
82290;BME280;71891;21.336;-157.724;2023-09-12T01:00:49;101315.94;;;30.53;34.06
82290;BME280;71891;21.336;-157.724;2023-09-12T01:03:14;101317.49;;;30.51;34.30
82290;BME280;71891;21.336;-157.724;2023-09-12T01:05:43;101326.51;;;31.05;33.99
82290;BME280;71891;21.336;-157.724;2023-09-12T01:08:05;101325.62;;;30.19;34.69
82290;BME280;71891;21.336;-157.724;2023-09-12T01:10:31;101319.84;;;30.12;34.62
82290;BME280;71891;21.336;-157.724;2023-09-12T01:12:56;101320.41;;;29.85;34.55
82290;BME280;71891;21.336;-157.724;2023-09-12T01:15:22;101326.47;;;30.35;35.17
82290;BME280;71891;21.336;-157.724;2023-09-12T01:17:47;101316.87;;;30.15;35.22
82290;BME280;71891;21.336;-157.724;2023-09-12T01:20:18;101314.75;;;30.95;34.49
82290;BME280;71891;21.336;-157.724;2023-09-12T01:22:50;101312.53;;;30.57;35.18
82290;BME280;71891;21.336;-157.724;2023-09-12T01:25:17;101318.47;;;30.66;34.37
82290;BME280;71891;21.336;-157.724;2023-09-12T01:27:33;101310.42;;;31.14;34.31
82290;BME280;71891;21.336;-157.724;2023-09-12T01:29:57;101308.39;;;30.55;34.21
82290;BME280;71891;21.336;-157.724;2023-09-12T01:32:21;101306.34;;;30.32;34.55
82290;BME280;71891;21.336;-157.724;2023-09-12T01:34:46;101309.98;;;30.49;34.81
82290;BME280;71891;21.336;-157.724;2023-09-12T01:37:12;101315.54;;;30.24;35.76
82290;BME280;71891;21.336;-157.724;2023-09-12T01:39:38;101315.28;;;29.92;35.59
82290;BME280;71891;21.336;-157.724;2023-09-12T01:42:04;101318.14;;;30.38;35.31
82290;BME280;71891;21.336;-157.724;2023-09-12T01:44:29;101311.84;;;30.81;34.69
82290;BME280;71891;21.336;-157.724;2023-09-12T01:46:54;101311.41;;;30.12;35.08
82290;BME280;71891;21.336;-157.724;2023-09-12T01:49:22;101305.92;;;30.18;34.96
82290;BME280;71891;21.336;-157.724;2023-09-12T01:51:45;101306.06;;;29.92;34.66
82290;BME280;71891;21.336;-157.724;2023-09-12T01:54:11;101302.34;;;30.34;34.75
82290;BME280;71891;21.336;-157.724;2023-09-12T01:56:37;101307.87;;;30.76;34.28
82290;BME280;71891;21.336;-157.724;2023-09-12T01:59:03;101306.73;;;30.66;34.98
82290;BME280;71891;21.336;-157.724;2023-09-12T02:01:27;101307.94;;;30.88;34.66
82290;BME280;71891;21.336;-157.724;2023-09-12T02:03:54;101307.33;;;30.42;35.08
82290;BME280;71891;21.336;-157.724;2023-09-12T02:06:18;101304.80;;;30.37;35.78
82290;BME280;71891;21.336;-157.724;2023-09-12T02:08:44;101305.35;;;30.10;35.61
82290;BME280;71891;21.336;-157.724;2023-09-12T02:11:10;101305.74;;;29.94;35.89
82290;BME280;71891;21.336;-157.724;2023-09-12T02:13:35;101306.58;;;30.07;35.13
82290;BME280;71891;21.336;-157.724;2023-09-12T02:16:01;101308.83;;;30.07;35.35
82290;BME280;71891;21.336;-157.724;2023-09-12T02:18:26;101307.10;;;30.03;35.58
82290;BME280;71891;21.336;-157.724;2023-09-12T02:20:52;101306.08;;;30.07;35.92
82290;BME280;71891;21.336;-157.724;2023-09-12T02:23:17;101301.92;;;30.48;34.84
82290;BME280;71891;21.336;-157.724;2023-09-12T02:25:43;101299.55;;;29.99;35.47
82290;BME280;71891;21.336;-157.724;2023-09-12T02:28:09;101305.89;;;29.56;35.82
82290;BME280;71891;21.336;-157.724;2023-09-12T02:30:37;101307.83;;;30.09;35.35
82290;BME280;71891;21.336;-157.724;2023-09-12T02:32:59;101311.72;;;30.56;35.09
82290;BME280;71891;21.336;-157.724;2023-09-12T02:35:27;101310.56;;;30.05;35.14
82290;BME280;71891;21.336;-157.724;2023-09-12T02:37:51;101308.27;;;30.59;34.48
82290;BME280;71891;21.336;-157.724;2023-09-12T02:40:16;101309.94;;;29.94;35.65
82290;BME280;71891;21.336;-157.724;2023-09-12T02:42:42;101310.18;;;30.54;35.30
82290;BME280;71891;21.336;-157.724;2023-09-12T02:45:08;101309.42;;;29.39;36.20
82290;BME280;71891;21.336;-157.724;2023-09-12T02:47:34;101303.89;;;29.88;35.60
82290;BME280;71891;21.336;-157.724;2023-09-12T02:49:58;101305.93;;;29.76;35.98
82290;BME280;71891;21.336;-157.724;2023-09-12T02:52:24;101308.51;;;30.07;34.92
82290;BME280;71891;21.336;-157.724;2023-09-12T02:54:50;101312.79;;;29.11;35.50
82290;BME280;71891;21.336;-157.724;2023-09-12T02:57:15;101311.31;;;29.82;34.49
82290;BME280;71891;21.336;-157.724;2023-09-12T02:59:41;101314.38;;;30.12;34.45
82290;BME280;71891;21.336;-157.724;2023-09-12T03:02:06;101317.94;;;29.20;34.91
82290;BME280;71891;21.336;-157.724;2023-09-12T03:04:34;101317.27;;;30.19;34.01
82290;BME280;71891;21.336;-157.724;2023-09-12T03:06:58;101319.93;;;29.24;35.35
82290;BME280;71891;21.336;-157.724;2023-09-12T03:09:23;101324.10;;;29.84;35.02
82290;BME280;71891;21.336;-157.724;2023-09-12T03:11:49;101325.65;;;29.36;35.70
82290;BME280;71891;21.336;-157.724;2023-09-12T03:14:14;101324.09;;;29.30;35.27
82290;BME280;71891;21.336;-157.724;2023-09-12T03:16:41;101329.46;;;29.69;35.29
82290;BME280;71891;21.336;-157.724;2023-09-12T03:19:06;101333.74;;;29.24;35.75
82290;BME280;71891;21.336;-157.724;2023-09-12T03:21:31;101333.19;;;29.00;35.46
82290;BME280;71891;21.336;-157.724;2023-09-12T03:23:57;101333.58;;;29.52;35.41
82290;BME280;71891;21.336;-157.724;2023-09-12T03:26:22;101329.98;;;29.59;35.61
82290;BME280;71891;21.336;-157.724;2023-09-12T03:28:49;101329.02;;;28.66;36.17
82290;BME280;71891;21.336;-157.724;2023-09-12T03:31:14;101332.68;;;29.21;36.09
82290;BME280;71891;21.336;-157.724;2023-09-12T03:33:39;101332.63;;;29.08;36.10
82290;BME280;71891;21.336;-157.724;2023-09-12T03:36:05;101331.34;;;29.20;35.69
82290;BME280;71891;21.336;-157.724;2023-09-12T03:38:30;101328.49;;;29.53;36.10
82290;BME280;71891;21.336;-157.724;2023-09-12T03:40:56;101331.18;;;29.26;35.60
82290;BME280;71891;21.336;-157.724;2023-09-12T03:43:21;101332.21;;;29.35;36.24
82290;BME280;71891;21.336;-157.724;2023-09-12T03:45:47;101337.72;;;28.97;37.30
82290;BME280;71891;21.336;-157.724;2023-09-12T03:48:13;101339.72;;;28.92;36.86
82290;BME280;71891;21.336;-157.724;2023-09-12T03:50:39;101341.71;;;29.09;35.46
82290;BME280;71891;21.336;-157.724;2023-09-12T03:53:04;101341.38;;;28.99;35.59
82290;BME280;71891;21.336;-157.724;2023-09-12T03:55:29;101346.07;;;28.72;36.03
82290;BME280;71891;21.336;-157.724;2023-09-12T03:57:55;101348.27;;;28.54;35.66
82290;BME280;71891;21.336;-157.724;2023-09-12T04:00:21;101340.07;;;29.40;34.74
82290;BME280;71891;21.336;-157.724;2023-09-12T04:02:46;101340.50;;;29.15;34.73
82290;BME280;71891;21.336;-157.724;2023-09-12T04:05:13;101340.91;;;29.95;34.07
82290;BME280;71891;21.336;-157.724;2023-09-12T04:07:38;101342.17;;;29.34;35.04
82290;BME280;71891;21.336;-157.724;2023-09-12T04:10:03;101348.45;;;28.40;36.30
82290;BME280;71891;21.336;-157.724;2023-09-12T04:12:29;101345.19;;;28.70;36.38
82290;BME280;71891;21.336;-157.724;2023-09-12T04:14:54;101343.92;;;29.05;36.12
82290;BME280;71891;21.336;-157.724;2023-09-12T04:17:20;101349.55;;;28.53;36.89
82290;BME280;71891;21.336;-157.724;2023-09-12T04:19:45;101350.19;;;28.74;37.61
82290;BME280;71891;21.336;-157.724;2023-09-12T04:22:11;101346.15;;;28.87;37.39
82290;BME280;71891;21.336;-157.724;2023-09-12T04:24:37;101358.64;;;28.80;37.80
82290;BME280;71891;21.336;-157.724;2023-09-12T04:27:02;101370.78;;;28.03;37.58
82290;BME280;71891;21.336;-157.724;2023-09-12T04:29:28;101371.30;;;28.80;36.36
82290;BME280;71891;21.336;-157.724;2023-09-12T04:31:53;101383.94;;;28.52;37.26
82290;BME280;71891;21.336;-157.724;2023-09-12T04:34:19;101388.31;;;29.05;35.82
82290;BME280;71891;21.336;-157.724;2023-09-12T04:36:45;101391.48;;;28.09;36.69
82290;BME280;71891;21.336;-157.724;2023-09-12T04:39:10;101395.22;;;28.39;38.01
82290;BME280;71891;21.336;-157.724;2023-09-12T04:41:36;101400.43;;;28.08;37.98
82290;BME280;71891;21.336;-157.724;2023-09-12T04:44:02;101400.73;;;28.26;37.76
82290;BME280;71891;21.336;-157.724;2023-09-12T04:46:27;101403.25;;;28.30;37.65
82290;BME280;71891;21.336;-157.724;2023-09-12T04:48:53;101404.25;;;28.01;37.82
82290;BME280;71891;21.336;-157.724;2023-09-12T04:51:18;101404.87;;;28.44;37.49
82290;BME280;71891;21.336;-157.724;2023-09-12T04:53:44;101408.05;;;28.46;37.77
82290;BME280;71891;21.336;-157.724;2023-09-12T04:56:10;101408.83;;;28.53;37.17
82290;BME280;71891;21.336;-157.724;2023-09-12T04:58:35;101409.31;;;28.60;37.33
82290;BME280;71891;21.336;-157.724;2023-09-12T05:01:01;101413.28;;;27.93;37.57
82290;BME280;71891;21.336;-157.724;2023-09-12T05:03:26;101417.26;;;28.20;37.42
82290;BME280;71891;21.336;-157.724;2023-09-12T05:05:53;101416.04;;;28.22;37.81
82290;BME280;71891;21.336;-157.724;2023-09-12T05:08:18;101421.04;;;27.91;38.70
82290;BME280;71891;21.336;-157.724;2023-09-12T05:10:45;101419.73;;;27.45;39.42
82290;BME280;71891;21.336;-157.724;2023-09-12T05:13:09;101425.45;;;28.43;37.51
82290;BME280;71891;21.336;-157.724;2023-09-12T05:15:35;101430.25;;;28.00;38.36
82290;BME280;71891;21.336;-157.724;2023-09-12T05:18:00;101436.93;;;28.20;38.16
82290;BME280;71891;21.336;-157.724;2023-09-12T05:20:26;101446.57;;;28.11;38.21
82290;BME280;71891;21.336;-157.724;2023-09-12T05:22:51;101453.53;;;27.70;38.44
82290;BME280;71891;21.336;-157.724;2023-09-12T05:25:17;101458.57;;;28.23;37.73
82290;BME280;71891;21.336;-157.724;2023-09-12T05:27:42;101456.92;;;28.11;38.19
82290;BME280;71891;21.336;-157.724;2023-09-12T05:30:09;101455.60;;;27.54;38.41
82290;BME280;71891;21.336;-157.724;2023-09-12T05:32:34;101457.86;;;27.61;38.66
82290;BME280;71891;21.336;-157.724;2023-09-12T05:34:59;101467.85;;;28.19;37.54
82290;BME280;71891;21.336;-157.724;2023-09-12T05:37:25;101468.82;;;27.96;38.55
82290;BME280;71891;21.336;-157.724;2023-09-12T05:39:51;101472.09;;;28.09;38.58
82290;BME280;71891;21.336;-157.724;2023-09-12T05:42:16;101474.34;;;28.22;38.61
82290;BME280;71891;21.336;-157.724;2023-09-12T05:44:43;101480.32;;;27.90;38.34
82290;BME280;71891;21.336;-157.724;2023-09-12T05:47:08;101477.81;;;27.80;38.50
82290;BME280;71891;21.336;-157.724;2023-09-12T05:49:33;101481.82;;;28.12;37.87
82290;BME280;71891;21.336;-157.724;2023-09-12T05:52:00;101485.27;;;27.64;38.44
82290;BME280;71891;21.336;-157.724;2023-09-12T05:54:24;101484.31;;;28.26;37.61
82290;BME280;71891;21.336;-157.724;2023-09-12T05:56:51;101484.63;;;27.70;37.85
82290;BME280;71891;21.336;-157.724;2023-09-12T05:59:16;101487.33;;;27.74;38.17
82290;BME280;71891;21.336;-157.724;2023-09-12T06:01:41;101492.11;;;28.37;37.76
82290;BME280;71891;21.336;-157.724;2023-09-12T06:04:07;101497.65;;;27.78;38.67
82290;BME280;71891;21.336;-157.724;2023-09-12T06:06:33;101501.50;;;27.01;38.73
82290;BME280;71891;21.336;-157.724;2023-09-12T06:08:58;101498.17;;;28.19;38.55
82290;BME280;71891;21.336;-157.724;2023-09-12T06:11:24;101504.60;;;28.37;38.78
82290;BME280;71891;21.336;-157.724;2023-09-12T06:13:49;101505.96;;;27.96;38.67
82290;BME280;71891;21.336;-157.724;2023-09-12T06:16:15;101512.19;;;27.45;39.51
82290;BME280;71891;21.336;-157.724;2023-09-12T06:18:41;101514.20;;;27.51;39.83
82290;BME280;71891;21.336;-157.724;2023-09-12T06:21:07;101513.25;;;27.74;40.00
82290;BME280;71891;21.336;-157.724;2023-09-12T06:23:32;101515.23;;;28.18;39.48
82290;BME280;71891;21.336;-157.724;2023-09-12T06:25:58;101521.80;;;27.89;40.03
82290;BME280;71891;21.336;-157.724;2023-09-12T06:28:27;101522.70;;;27.63;40.69
82290;BME280;71891;21.336;-157.724;2023-09-12T06:30:49;101532.47;;;27.68;40.59
82290;BME280;71891;21.336;-157.724;2023-09-12T06:33:15;101532.38;;;27.73;40.93
82290;BME280;71891;21.336;-157.724;2023-09-12T06:35:40;101528.07;;;27.94;41.43
82290;BME280;71891;21.336;-157.724;2023-09-12T06:38:06;101529.42;;;26.97;41.76
82290;BME280;71891;21.336;-157.724;2023-09-12T06:40:31;101534.70;;;27.60;41.15
82290;BME280;71891;21.336;-157.724;2023-09-12T06:42:57;101547.92;;;27.51;41.62
82290;BME280;71891;21.336;-157.724;2023-09-12T06:45:23;101559.15;;;26.87;41.91
82290;BME280;71891;21.336;-157.724;2023-09-12T06:47:48;101566.99;;;27.04;41.23
82290;BME280;71891;21.336;-157.724;2023-09-12T06:50:14;101566.93;;;27.42;40.72
82290;BME280;71891;21.336;-157.724;2023-09-12T06:52:40;101569.06;;;27.26;40.36
82290;BME280;71891;21.336;-157.724;2023-09-12T06:55:06;101572.06;;;27.79;39.71
82290;BME280;71891;21.336;-157.724;2023-09-12T06:57:31;101572.60;;;27.91;39.50
82290;BME280;71891;21.336;-157.724;2023-09-12T06:59:56;101576.14;;;27.39;40.09
82290;BME280;71891;21.336;-157.724;2023-09-12T07:02:22;101577.88;;;27.24;40.37
82290;BME280;71891;21.336;-157.724;2023-09-12T07:04:48;101579.33;;;27.52;39.71
82290;BME280;71891;21.336;-157.724;2023-09-12T07:07:13;101583.11;;;28.08;39.67
82290;BME280;71891;21.336;-157.724;2023-09-12T07:09:39;101584.36;;;27.34;40.34
82290;BME280;71891;21.336;-157.724;2023-09-12T07:12:05;101582.43;;;27.32;40.78
82290;BME280;71891;21.336;-157.724;2023-09-12T07:14:30;101584.54;;;27.27;40.20
82290;BME280;71891;21.336;-157.724;2023-09-12T07:16:56;101583.22;;;27.15;39.89
82290;BME280;71891;21.336;-157.724;2023-09-12T07:19:21;101585.77;;;27.86;39.63
82290;BME280;71891;21.336;-157.724;2023-09-12T07:21:47;101589.01;;;27.48;41.20
82290;BME280;71891;21.336;-157.724;2023-09-12T07:24:13;101591.99;;;27.48;40.14
82290;BME280;71891;21.336;-157.724;2023-09-12T07:26:39;101598.42;;;28.01;39.66
82290;BME280;71891;21.336;-157.724;2023-09-12T07:29:04;101598.32;;;28.29;39.28
82290;BME280;71891;21.336;-157.724;2023-09-12T07:31:29;101603.98;;;27.97;39.03
82290;BME280;71891;21.336;-157.724;2023-09-12T07:33:55;101605.11;;;28.08;39.49
82290;BME280;71891;21.336;-157.724;2023-09-12T07:36:21;101610.58;;;27.66;40.52
82290;BME280;71891;21.336;-157.724;2023-09-12T07:38:46;101611.80;;;27.64;40.50
82290;BME280;71891;21.336;-157.724;2023-09-12T07:41:12;101611.53;;;27.66;40.63
82290;BME280;71891;21.336;-157.724;2023-09-12T07:43:38;101612.60;;;27.56;41.00
82290;BME280;71891;21.336;-157.724;2023-09-12T07:46:03;101612.55;;;27.90;40.18
82290;BME280;71891;21.336;-157.724;2023-09-12T07:48:29;101609.95;;;28.08;38.01
82290;BME280;71891;21.336;-157.724;2023-09-12T07:50:55;101609.64;;;27.83;38.11
82290;BME280;71891;21.336;-157.724;2023-09-12T07:53:20;101613.43;;;27.91;38.22
82290;BME280;71891;21.336;-157.724;2023-09-12T07:55:46;101611.24;;;27.19;39.26
82290;BME280;71891;21.336;-157.724;2023-09-12T07:58:12;101615.65;;;27.33;39.84
82290;BME280;71891;21.336;-157.724;2023-09-12T08:00:38;101617.08;;;27.32;38.88
82290;BME280;71891;21.336;-157.724;2023-09-12T08:03:03;101618.70;;;27.48;38.96
82290;BME280;71891;21.336;-157.724;2023-09-12T08:05:28;101623.42;;;26.98;38.73
82290;BME280;71891;21.336;-157.724;2023-09-12T08:07:54;101619.94;;;27.80;38.15
82290;BME280;71891;21.336;-157.724;2023-09-12T08:10:20;101622.63;;;27.87;38.16
82290;BME280;71891;21.336;-157.724;2023-09-12T08:12:45;101623.67;;;27.50;38.73
82290;BME280;71891;21.336;-157.724;2023-09-12T08:15:11;101623.35;;;27.59;38.62
82290;BME280;71891;21.336;-157.724;2023-09-12T08:17:37;101623.80;;;27.28;39.48
82290;BME280;71891;21.336;-157.724;2023-09-12T08:20:02;101620.51;;;26.97;39.50
82290;BME280;71891;21.336;-157.724;2023-09-12T08:22:28;101613.08;;;26.96;39.64
82290;BME280;71891;21.336;-157.724;2023-09-12T08:24:53;101611.02;;;27.27;39.51
82290;BME280;71891;21.336;-157.724;2023-09-12T08:27:19;101611.99;;;26.98;40.01
82290;BME280;71891;21.336;-157.724;2023-09-12T08:29:44;101612.35;;;26.67;40.71
82290;BME280;71891;21.336;-157.724;2023-09-12T08:32:10;101612.36;;;27.33;39.98
82290;BME280;71891;21.336;-157.724;2023-09-12T08:34:36;101609.00;;;26.97;40.47
82290;BME280;71891;21.336;-157.724;2023-09-12T08:37:01;101607.40;;;27.00;41.09
82290;BME280;71891;21.336;-157.724;2023-09-12T08:39:27;101604.66;;;26.32;41.57
82290;BME280;71891;21.336;-157.724;2023-09-12T08:41:53;101603.67;;;26.64;41.44
82290;BME280;71891;21.336;-157.724;2023-09-12T08:44:18;101607.50;;;27.37;40.38
82290;BME280;71891;21.336;-157.724;2023-09-12T08:46:45;101607.71;;;26.19;41.44
82290;BME280;71891;21.336;-157.724;2023-09-12T08:49:10;101602.39;;;27.14;40.41
82290;BME280;71891;21.336;-157.724;2023-09-12T08:51:35;101602.57;;;27.89;39.93
82290;BME280;71891;21.336;-157.724;2023-09-12T08:54:00;101605.31;;;27.57;39.45
82290;BME280;71891;21.336;-157.724;2023-09-12T08:56:26;101610.01;;;27.64;40.32
82290;BME280;71891;21.336;-157.724;2023-09-12T08:58:52;101607.34;;;26.90;40.36
82290;BME280;71891;21.336;-157.724;2023-09-12T09:01:19;101610.15;;;27.12;40.72
82290;BME280;71891;21.336;-157.724;2023-09-12T09:03:44;101609.42;;;27.31;40.86
82290;BME280;71891;21.336;-157.724;2023-09-12T09:06:09;101607.50;;;27.08;41.43
82290;BME280;71891;21.336;-157.724;2023-09-12T09:08:35;101600.67;;;27.05;41.17
82290;BME280;71891;21.336;-157.724;2023-09-12T09:11:00;101603.15;;;26.93;41.29
82290;BME280;71891;21.336;-157.724;2023-09-12T09:13:26;101600.67;;;27.25;40.40
82290;BME280;71891;21.336;-157.724;2023-09-12T09:18:17;101592.77;;;29.12;35.67
82290;BME280;71891;21.336;-157.724;2023-09-12T09:20:42;101589.59;;;30.16;34.61
82290;BME280;71891;21.336;-157.724;2023-09-12T09:23:09;101590.57;;;29.19;35.19
82290;BME280;71891;21.336;-157.724;2023-09-12T09:25:34;101587.55;;;29.76;34.43
82290;BME280;71891;21.336;-157.724;2023-09-12T09:28:02;101576.93;;;30.59;33.38
82290;BME280;71891;21.336;-157.724;2023-09-12T09:30:39;101582.72;;;29.72;34.68
82290;BME280;71891;21.336;-157.724;2023-09-12T09:32:54;101575.50;;;30.90;33.00
82290;BME280;71891;21.336;-157.724;2023-09-12T09:35:16;101574.94;;;29.66;34.38
82290;BME280;71891;21.336;-157.724;2023-09-12T09:37:42;101575.87;;;29.17;35.17
82290;BME280;71891;21.336;-157.724;2023-09-12T09:40:08;101570.11;;;29.44;34.57
82290;BME280;71891;21.336;-157.724;2023-09-12T09:42:33;101566.58;;;30.57;34.05
82290;BME280;71891;21.336;-157.724;2023-09-12T09:44:59;101560.74;;;30.05;34.32
82290;BME280;71891;21.336;-157.724;2023-09-12T09:47:24;101555.20;;;29.93;34.43
82290;BME280;71891;21.336;-157.724;2023-09-12T09:49:52;101553.33;;;29.77;35.03
82290;BME280;71891;21.336;-157.724;2023-09-12T09:52:15;101555.08;;;29.08;35.02
82290;BME280;71891;21.336;-157.724;2023-09-12T09:54:44;101552.12;;;30.06;34.71
82290;BME280;71891;21.336;-157.724;2023-09-12T09:57:07;101554.04;;;30.19;33.84
82290;BME280;71891;21.336;-157.724;2023-09-12T09:59:32;101553.30;;;30.45;33.13
82290;BME280;71891;21.336;-157.724;2023-09-12T10:01:59;101547.30;;;30.13;33.80
82290;BME280;71891;21.336;-157.724;2023-09-12T10:04:24;101547.49;;;29.99;33.91
82290;BME280;71891;21.336;-157.724;2023-09-12T10:06:50;101544.98;;;30.36;34.36
82290;BME280;71891;21.336;-157.724;2023-09-12T10:09:15;101552.43;;;29.61;35.02
82290;BME280;71891;21.336;-157.724;2023-09-12T10:11:42;101550.79;;;30.16;34.83
82290;BME280;71891;21.336;-157.724;2023-09-12T10:14:07;101553.56;;;29.45;35.21
82290;BME280;71891;21.336;-157.724;2023-09-12T10:16:33;101554.63;;;29.43;36.25
82290;BME280;71891;21.336;-157.724;2023-09-12T10:19:08;101550.95;;;29.81;35.50
82290;BME280;71891;21.336;-157.724;2023-09-12T10:21:29;101556.82;;;29.50;35.54
82290;BME280;71891;21.336;-157.724;2023-09-12T10:23:49;101551.23;;;29.60;34.74
82290;BME280;71891;21.336;-157.724;2023-09-12T10:26:15;101553.37;;;29.57;34.68
82290;BME280;71891;21.336;-157.724;2023-09-12T10:28:41;101551.94;;;30.61;33.58
82290;BME280;71891;21.336;-157.724;2023-09-12T10:31:06;101545.99;;;30.46;33.79
82290;BME280;71891;21.336;-157.724;2023-09-12T10:33:31;101546.11;;;30.52;33.64
82290;BME280;71891;21.336;-157.724;2023-09-12T10:35:57;101543.82;;;31.21;33.31
82290;BME280;71891;21.336;-157.724;2023-09-12T10:38:24;101535.34;;;30.53;33.48
82290;BME280;71891;21.336;-157.724;2023-09-12T10:40:49;101532.25;;;29.75;34.13
82290;BME280;71891;21.336;-157.724;2023-09-12T10:43:14;101531.29;;;29.78;34.29
82290;BME280;71891;21.336;-157.724;2023-09-12T10:45:39;101526.93;;;30.02;33.66
82290;BME280;71891;21.336;-157.724;2023-09-12T10:48:05;101530.59;;;30.42;33.07
82290;BME280;71891;21.336;-157.724;2023-09-12T10:50:30;101528.54;;;29.45;34.20
82290;BME280;71891;21.336;-157.724;2023-09-12T10:55:22;101522.40;;;29.60;34.29
82290;BME280;71891;21.336;-157.724;2023-09-12T10:58:01;101518.93;;;28.75;34.78
82290;BME280;71891;21.336;-157.724;2023-09-12T11:00:14;101510.64;;;29.12;34.86
82290;BME280;71891;21.336;-157.724;2023-09-12T11:02:40;101511.47;;;28.68;35.62
82290;BME280;71891;21.336;-157.724;2023-09-12T11:05:06;101507.76;;;29.68;35.11
82290;BME280;71891;21.336;-157.724;2023-09-12T11:07:33;101505.02;;;29.62;35.14
82290;BME280;71891;21.336;-157.724;2023-09-12T11:17:22;101496.04;;;29.25;35.82
82290;BME280;71891;21.336;-157.724;2023-09-12T11:19:43;101484.95;;;29.28;34.83
82290;BME280;71891;21.336;-157.724;2023-09-12T11:24:34;101481.92;;;29.76;34.61
82290;BME280;71891;21.336;-157.724;2023-09-12T11:26:58;101477.29;;;29.83;35.17
82290;BME280;71891;21.336;-157.724;2023-09-12T11:29:20;101473.06;;;29.52;35.20
82290;BME280;71891;21.336;-157.724;2023-09-12T11:31:54;101468.14;;;29.67;35.74
82290;BME280;71891;21.336;-157.724;2023-09-12T11:34:12;101465.46;;;30.25;35.13
82290;BME280;71891;21.336;-157.724;2023-09-12T11:36:41;101459.20;;;30.06;34.65
82290;BME280;71891;21.336;-157.724;2023-09-12T11:39:03;101460.21;;;29.80;35.39
82290;BME280;71891;21.336;-157.724;2023-09-12T11:41:39;101456.61;;;29.92;35.28
82290;BME280;71891;21.336;-157.724;2023-09-12T11:43:55;101454.99;;;29.71;35.09
82290;BME280;71891;21.336;-157.724;2023-09-12T11:46:20;101455.09;;;29.93;34.51
82290;BME280;71891;21.336;-157.724;2023-09-12T11:48:46;101449.18;;;29.94;33.98
82290;BME280;71891;21.336;-157.724;2023-09-12T11:51:11;101448.16;;;30.27;33.73
82290;BME280;71891;21.336;-157.724;2023-09-12T11:53:37;101438.44;;;29.48;35.02
82290;BME280;71891;21.336;-157.724;2023-09-12T11:56:02;101441.45;;;29.96;34.24
82290;BME280;71891;21.336;-157.724;2023-09-12T11:58:28;101442.32;;;29.36;35.86
82290;BME280;71891;21.336;-157.724;2023-09-12T12:00:55;101440.56;;;28.88;35.85
82290;BME280;71891;21.336;-157.724;2023-09-12T12:03:21;101432.31;;;29.14;35.28
82290;BME280;71891;21.336;-157.724;2023-09-12T12:05:45;101444.89;;;28.26;36.31
82290;BME280;71891;21.336;-157.724;2023-09-12T12:08:11;101434.09;;;28.81;35.30
82290;BME280;71891;21.336;-157.724;2023-09-12T12:10:37;101436.19;;;28.62;35.56
82290;BME280;71891;21.336;-157.724;2023-09-12T12:13:02;101435.30;;;29.54;34.49
82290;BME280;71891;21.336;-157.724;2023-09-12T12:15:28;101436.67;;;28.91;35.09
82290;BME280;71891;21.336;-157.724;2023-09-12T12:17:55;101437.56;;;28.72;34.66
82290;BME280;71891;21.336;-157.724;2023-09-12T12:20:19;101433.79;;;29.77;33.48
82290;BME280;71891;21.336;-157.724;2023-09-12T12:22:45;101432.65;;;29.09;33.53
82290;BME280;71891;21.336;-157.724;2023-09-12T12:25:13;101430.65;;;29.28;33.45